createdAt,value
2022-10-02T00:01:23.890Z,14.70
2022-10-02T00:05:20.147Z,14.60
2022-10-02T00:09:05.532Z,14.60
2022-10-02T00:12:53.273Z,14.70
2022-10-02T00:16:46.867Z,14.70
2022-10-02T00:20:39.668Z,14.60
2022-10-02T00:24:27.304Z,14.60
2022-10-02T00:28:29.204Z,14.60
2022-10-02T00:32:41.390Z,14.60
2022-10-02T00:37:22.523Z,14.60
2022-10-02T00:41:41.250Z,14.60
2022-10-02T00:45:35.420Z,14.60
2022-10-02T00:49:41.763Z,14.60
2022-10-02T00:53:44.412Z,14.60
2022-10-02T00:57:56.487Z,14.60
2022-10-02T01:01:54.664Z,14.60
2022-10-02T01:05:37.940Z,14.60
2022-10-02T01:09:19.914Z,14.60
2022-10-02T01:13:01.953Z,14.60
2022-10-02T01:16:45.193Z,14.60
2022-10-02T01:20:35.724Z,14.60
2022-10-02T01:24:34.201Z,14.60
2022-10-02T01:28:16.123Z,14.60
2022-10-02T01:31:58.062Z,14.60
2022-10-02T01:35:40.916Z,14.60
2022-10-02T01:39:23.452Z,14.60
2022-10-02T01:43:18.497Z,14.60
2022-10-02T01:47:27.211Z,14.60
2022-10-02T01:51:27.416Z,14.60
2022-10-02T01:55:18.372Z,14.60
2022-10-02T01:59:00.235Z,14.60
2022-10-02T02:03:15.302Z,14.60
2022-10-02T02:07:15.711Z,14.60
2022-10-02T02:11:06.719Z,14.60
2022-10-02T02:15:09.302Z,14.60
2022-10-02T02:18:59.932Z,14.50
2022-10-02T02:22:46.632Z,14.60
2022-10-02T02:26:30.490Z,14.60
2022-10-02T02:30:14.221Z,14.50
2022-10-02T02:34:00.384Z,14.60
2022-10-02T02:37:44.957Z,14.50
2022-10-02T02:41:33.156Z,14.60
2022-10-02T02:45:25.590Z,14.50
2022-10-02T02:49:11.813Z,14.60
2022-10-02T02:53:00.116Z,14.60
2022-10-02T02:56:44.063Z,14.50
2022-10-02T03:00:26.192Z,14.50
2022-10-02T03:04:14.796Z,14.50
2022-10-02T03:08:04.596Z,14.40
2022-10-02T03:11:51.942Z,14.40
2022-10-02T03:15:36.996Z,14.40
2022-10-02T03:19:57.483Z,14.40
2022-10-02T03:23:48.221Z,14.40
2022-10-02T03:27:47.625Z,14.50
2022-10-02T03:31:32.959Z,14.40
2022-10-02T03:35:15.804Z,14.50
2022-10-02T03:39:23.611Z,14.50
2022-10-02T03:43:04.730Z,14.40
2022-10-02T03:46:46.724Z,14.40
2022-10-02T03:50:31.730Z,14.40
2022-10-02T03:54:19.835Z,14.40
2022-10-02T03:58:15.877Z,14.40
2022-10-02T04:02:00.333Z,14.40
2022-10-02T04:05:58.441Z,14.40
2022-10-02T04:09:51.892Z,14.40
2022-10-02T04:13:51.636Z,14.40
2022-10-02T04:17:36.276Z,14.40
2022-10-02T04:21:18.181Z,14.40
2022-10-02T04:25:21.328Z,14.40
2022-10-02T04:29:16.237Z,14.40
2022-10-02T04:33:14.120Z,14.40
2022-10-02T04:37:28.065Z,14.40
2022-10-02T04:41:58.350Z,14.30
2022-10-02T04:46:02.091Z,14.30
2022-10-02T04:49:46.935Z,14.30
2022-10-02T04:53:38.015Z,14.30
2022-10-02T04:57:51.498Z,14.30
2022-10-02T05:01:54.334Z,14.20
2022-10-02T05:05:45.306Z,14.20
2022-10-02T05:09:44.311Z,14.30
2022-10-02T05:13:32.264Z,14.20
2022-10-02T05:17:30.090Z,14.30
2022-10-02T05:21:43.576Z,14.20
2022-10-02T05:25:46.840Z,14.20
2022-10-02T05:30:00.687Z,14.20
2022-10-02T05:34:03.592Z,14.20
2022-10-02T05:38:04.374Z,14.10
2022-10-02T05:42:10.856Z,14.10
2022-10-02T05:46:00.115Z,14.10
2022-10-02T05:49:50.844Z,14.10
2022-10-02T05:53:46.327Z,14.10
2022-10-02T05:57:46.250Z,14.00
2022-10-02T06:01:32.218Z,14.00
2022-10-02T06:05:21.117Z,14.00
2022-10-02T06:09:14.461Z,14.00
2022-10-02T06:13:34.791Z,14.00
2022-10-02T06:17:26.149Z,14.00
2022-10-02T06:21:17.032Z,13.90
2022-10-02T06:25:07.269Z,13.90
2022-10-02T06:29:00.542Z,13.90
2022-10-02T06:33:16.494Z,13.90
2022-10-02T06:37:37.524Z,13.80
2022-10-02T06:41:34.675Z,13.80
2022-10-02T06:45:42.751Z,13.70
2022-10-02T06:49:33.681Z,13.60
2022-10-02T06:53:33.284Z,13.60
2022-10-02T06:57:28.755Z,13.60
2022-10-02T07:01:30.051Z,13.50
2022-10-02T07:05:47.046Z,13.50
2022-10-02T07:09:46.257Z,13.40
2022-10-02T07:13:45.453Z,13.30
2022-10-02T07:17:53.508Z,13.40
2022-10-02T07:21:47.253Z,13.30
2022-10-02T07:25:47.724Z,13.30
2022-10-02T07:29:37.381Z,13.30
2022-10-02T07:33:29.931Z,13.20
2022-10-02T07:37:46.276Z,13.20
2022-10-02T07:41:59.885Z,13.20
2022-10-02T07:45:46.067Z,13.30
2022-10-02T07:49:39.196Z,13.20
2022-10-02T07:53:44.702Z,13.20
2022-10-02T07:57:39.448Z,13.10
2022-10-02T08:01:31.606Z,13.20
2022-10-02T08:05:23.741Z,13.20
2022-10-02T08:09:34.620Z,13.30
2022-10-02T08:13:34.920Z,13.30
2022-10-02T08:17:35.094Z,13.30
2022-10-02T08:21:21.775Z,13.30
2022-10-02T08:25:29.009Z,13.40
2022-10-02T08:29:15.736Z,13.40
2022-10-02T08:32:58.607Z,13.40
2022-10-02T08:37:00.820Z,13.40
2022-10-02T08:41:20.162Z,13.50
2022-10-02T08:45:02.520Z,13.60
2022-10-02T08:49:31.832Z,13.60
2022-10-02T08:53:44.520Z,13.70
2022-10-02T08:57:48.131Z,13.70
2022-10-02T09:01:59.901Z,13.70
2022-10-02T09:05:53.620Z,13.70
2022-10-02T09:09:41.508Z,13.70
2022-10-02T09:13:41.181Z,13.80
2022-10-02T09:17:48.889Z,13.80
2022-10-02T09:21:48.610Z,13.80
2022-10-02T09:25:56.773Z,13.90
2022-10-02T09:30:03.162Z,13.90
2022-10-02T09:33:50.885Z,14.00
2022-10-02T09:37:50.500Z,14.00
2022-10-02T09:41:53.907Z,14.10
2022-10-02T09:45:54.810Z,14.30
2022-10-02T09:49:57.656Z,14.40
2022-10-02T09:54:18.776Z,14.40
2022-10-02T09:58:16.343Z,14.50
2022-10-02T10:02:33.789Z,14.60
2022-10-02T10:06:30.668Z,14.60
2022-10-02T10:10:39.648Z,14.70
2022-10-02T10:14:55.505Z,14.80
2022-10-02T10:19:03.342Z,14.80
2022-10-02T10:22:45.268Z,14.90
2022-10-02T10:26:36.046Z,15.00
2022-10-02T10:30:44.072Z,15.10
2022-10-02T10:34:37.905Z,15.20
2022-10-02T10:38:38.203Z,15.20
2022-10-02T10:43:07.095Z,15.30
2022-10-02T10:47:27.886Z,15.40
2022-10-02T10:51:30.729Z,15.50
2022-10-02T10:55:30.174Z,15.60
2022-10-02T10:59:50.600Z,15.80
2022-10-02T11:03:47.794Z,15.90
2022-10-02T11:07:34.788Z,16.10
2022-10-02T11:11:46.841Z,16.40
2022-10-02T11:15:59.990Z,16.70
2022-10-02T11:19:42.113Z,17.00
2022-10-02T11:24:01.183Z,17.30
2022-10-02T11:28:01.985Z,17.50
2022-10-02T11:32:03.796Z,17.80
2022-10-02T11:36:04.308Z,18.10
2022-10-02T11:40:14.277Z,18.40
2022-10-02T11:44:05.610Z,18.70
2022-10-02T11:47:58.082Z,19.10
2022-10-02T11:52:00.505Z,19.40
2022-10-02T11:55:49.436Z,19.60
2022-10-02T11:59:52.635Z,19.90
2022-10-02T12:03:54.815Z,20.10
2022-10-02T12:07:42.409Z,20.50
2022-10-02T12:12:09.620Z,20.90
2022-10-02T12:16:19.387Z,21.40
2022-10-02T12:20:40.765Z,21.90
2022-10-02T12:25:02.915Z,21.70
2022-10-02T12:28:59.600Z,21.80
2022-10-02T12:32:54.056Z,21.90
2022-10-02T12:36:56.413Z,21.80
2022-10-02T12:40:54.560Z,21.40
2022-10-02T12:45:01.113Z,21.40
2022-10-02T12:49:01.248Z,21.60
2022-10-02T12:53:13.900Z,21.30
2022-10-02T12:56:58.628Z,20.90
2022-10-02T13:01:11.600Z,20.60
2022-10-02T13:05:28.893Z,20.60
2022-10-02T13:09:29.218Z,20.80
2022-10-02T13:13:21.060Z,21.50
2022-10-02T13:17:26.259Z,22.50
2022-10-02T13:21:13.646Z,22.90
2022-10-02T13:25:22.890Z,22.90
2022-10-02T13:29:43.031Z,23.10
2022-10-02T13:33:38.754Z,23.60
2022-10-02T13:37:41.923Z,24.10
2022-10-02T13:41:36.252Z,23.90
2022-10-02T13:45:22.422Z,23.80
2022-10-02T13:49:07.328Z,24.20
2022-10-02T13:53:03.223Z,24.70
2022-10-02T13:57:08.167Z,24.80
2022-10-02T14:01:05.107Z,24.30
2022-10-02T14:05:02.441Z,23.60
2022-10-02T14:09:03.034Z,23.00
2022-10-02T14:12:59.621Z,22.60
2022-10-02T14:17:05.073Z,22.20
2022-10-02T14:20:49.927Z,22.00
2022-10-02T14:24:50.447Z,22.80
2022-10-02T14:28:53.136Z,23.40
2022-10-02T14:33:09.081Z,23.20
2022-10-02T14:37:28.520Z,22.90
2022-10-02T14:41:25.111Z,23.00
2022-10-02T14:45:29.934Z,22.80
2022-10-02T14:49:18.266Z,22.40
2022-10-02T14:53:09.182Z,22.40
2022-10-02T14:57:01.461Z,22.20
2022-10-02T15:01:16.868Z,21.90
2022-10-02T15:05:17.140Z,21.80
2022-10-02T15:09:06.201Z,21.90
2022-10-02T15:13:02.445Z,22.70
2022-10-02T15:17:45.907Z,23.30
2022-10-02T15:21:33.647Z,24.20
2022-10-02T15:25:24.377Z,25.30
2022-10-02T15:29:12.356Z,25.40
2022-10-02T15:33:11.404Z,25.70
2022-10-02T15:37:17.837Z,25.20
2022-10-02T15:41:16.740Z,25.10
2022-10-02T15:45:07.441Z,25.20
2022-10-02T15:49:01.526Z,25.00
2022-10-02T15:52:57.103Z,25.10
2022-10-02T15:57:24.520Z,25.50
2022-10-02T16:01:15.528Z,25.90
2022-10-02T16:05:16.762Z,25.80
2022-10-02T16:09:31.021Z,25.10
2022-10-02T16:13:47.231Z,24.40
2022-10-02T16:18:14.085Z,24.00
2022-10-02T16:22:50.159Z,24.40
2022-10-02T16:26:37.852Z,23.90
2022-10-02T16:30:22.770Z,23.20
2022-10-02T16:34:19.723Z,22.80
2022-10-02T16:38:22.773Z,22.40
2022-10-02T16:42:20.504Z,22.50
2022-10-02T16:46:10.037Z,23.20
2022-10-02T16:50:42.278Z,23.80
2022-10-02T16:54:46.837Z,23.90
2022-10-02T16:58:43.447Z,23.30
2022-10-02T17:02:44.365Z,22.50
2022-10-02T17:06:34.510Z,21.90
2022-10-02T17:10:37.856Z,21.40
2022-10-02T17:15:01.829Z,21.10
2022-10-02T17:18:49.669Z,20.70
2022-10-02T17:22:38.123Z,20.40
2022-10-02T17:26:43.578Z,20.20
2022-10-02T17:30:28.110Z,19.90
2022-10-02T17:34:23.936Z,19.60
2022-10-02T17:38:12.640Z,19.50
2022-10-02T17:42:12.053Z,19.30
2022-10-02T17:46:16.470Z,19.10
2022-10-02T17:50:16.885Z,18.90
2022-10-02T17:54:22.997Z,18.70
2022-10-02T17:58:37.607Z,18.60
2022-10-02T18:02:51.034Z,18.40
2022-10-02T18:06:54.011Z,18.30
2022-10-02T18:10:58.911Z,18.10
2022-10-02T18:15:01.405Z,18.00
2022-10-02T18:19:09.405Z,17.90
2022-10-02T18:23:05.747Z,17.90
2022-10-02T18:27:15.459Z,17.90
2022-10-02T18:31:15.902Z,17.80
2022-10-02T18:35:28.365Z,17.70
2022-10-02T18:39:23.383Z,17.60
2022-10-02T18:43:21.302Z,17.60
2022-10-02T18:47:26.305Z,17.50
2022-10-02T18:51:28.361Z,17.30
2022-10-02T18:55:34.675Z,17.10
2022-10-02T18:59:39.721Z,17.00
2022-10-02T19:03:53.812Z,17.00
2022-10-02T19:08:02.070Z,16.90
2022-10-02T19:11:50.115Z,16.90
2022-10-02T19:15:32.939Z,16.80
2022-10-02T19:19:21.080Z,16.80
2022-10-02T19:23:07.394Z,16.70
2022-10-02T19:27:02.471Z,16.70
2022-10-02T19:30:52.576Z,16.60
2022-10-02T19:34:34.724Z,16.60
2022-10-02T19:38:37.932Z,16.40
2022-10-02T19:42:27.524Z,16.30
2022-10-02T19:46:12.606Z,16.10
2022-10-02T19:49:56.999Z,15.90
2022-10-02T19:53:42.882Z,15.80
2022-10-02T19:57:29.212Z,15.70
2022-10-02T20:01:25.393Z,15.60
2022-10-02T20:05:14.877Z,15.50
2022-10-02T20:09:16.950Z,15.40
2022-10-02T20:13:07.401Z,15.30
2022-10-02T20:17:08.035Z,15.30
2022-10-02T20:20:53.104Z,15.20
2022-10-02T20:24:53.418Z,15.10
2022-10-02T20:28:41.256Z,15.10
2022-10-02T20:33:00.787Z,15.20
2022-10-02T20:37:06.858Z,15.10
2022-10-02T20:40:53.331Z,15.10
2022-10-02T20:44:36.700Z,15.00
2022-10-02T20:49:06.471Z,14.90
2022-10-02T20:52:57.189Z,14.80
2022-10-02T20:57:03.493Z,14.70
2022-10-02T21:01:14.577Z,14.60
2022-10-02T21:05:18.375Z,14.60
2022-10-02T21:09:24.849Z,14.60
2022-10-02T21:13:09.926Z,14.60
2022-10-02T21:17:18.346Z,14.40
2022-10-02T21:21:21.597Z,14.40
2022-10-02T21:25:18.263Z,14.30
2022-10-02T21:29:00.312Z,14.30
2022-10-02T21:32:55.770Z,14.20
2022-10-02T21:36:54.325Z,14.20
2022-10-02T21:40:54.758Z,14.10
2022-10-02T21:45:14.347Z,14.00
2022-10-02T21:49:14.217Z,13.90
2022-10-02T21:52:56.481Z,13.80
2022-10-02T21:57:08.220Z,13.70
2022-10-02T22:00:56.327Z,13.80
2022-10-02T22:04:38.239Z,13.70
2022-10-02T22:08:23.364Z,13.80
2022-10-02T22:12:11.159Z,13.70
2022-10-02T22:16:15.255Z,13.70
2022-10-02T22:20:00.319Z,13.60
2022-10-02T22:24:05.613Z,13.60
2022-10-02T22:28:06.006Z,13.60
2022-10-02T22:31:50.646Z,13.60
2022-10-02T22:35:53.960Z,13.60
2022-10-02T22:39:46.276Z,13.60
2022-10-02T22:43:34.968Z,13.50
2022-10-02T22:47:38.481Z,13.40
2022-10-02T22:51:30.374Z,13.30
2022-10-02T22:55:32.144Z,13.20
2022-10-02T22:59:39.137Z,13.20
2022-10-02T23:03:32.038Z,13.10
2022-10-02T23:07:27.115Z,13.00
2022-10-02T23:11:20.322Z,13.00
2022-10-02T23:15:16.847Z,12.90
2022-10-02T23:19:06.736Z,12.90
2022-10-02T23:23:26.099Z,12.90
2022-10-02T23:27:14.506Z,12.90
2022-10-02T23:31:15.311Z,12.90
2022-10-02T23:35:28.172Z,12.80
2022-10-02T23:39:37.184Z,12.80
2022-10-02T23:43:30.203Z,12.70
2022-10-02T23:47:12.093Z,12.70
2022-10-02T23:51:17.679Z,12.60
2022-10-02T23:54:59.520Z,12.60
2022-10-02T23:59:17.906Z,12.50
